Time;durP1;ratioP1;P1;durP2;ratioP2;P2;SDS_P1;SDS_P2;PMS_P1;PMS_P2;Temp;Humidity;BMP_temperature;BMP_pressure;BME280_temperature;BME280_humidity;BME280_pressure;Samples;Min_cycle;Max_cycle;Signal;HPM_P1;HPM_P2
2022/10/20 00:01:58;;;;;;;2.22;1.45;;;19.20;59.00;;;;;;6236783;22;20020;-78
2022/10/20 00:04:24;;;;;;;2.63;1.48;;;19.20;58.90;;;;;;6263667;22;20016;-78
2022/10/20 00:06:50;;;;;;;2.60;1.50;;;19.20;58.90;;;;;;6263509;22;20015;-75
2022/10/20 00:09:15;;;;;;;3.53;1.80;;;19.20;58.90;;;;;;6264889;22;20016;-77
2022/10/20 00:11:41;;;;;;;2.65;1.67;;;19.20;58.90;;;;;;6265449;22;20032;-77
2022/10/20 00:14:07;;;;;;;3.17;1.50;;;19.20;58.90;;;;;;6262620;22;20011;-74
2022/10/20 00:16:36;;;;;;;3.22;1.50;;;19.20;58.80;;;;;;6265701;22;20086;-74
2022/10/20 00:19:02;;;;;;;3.78;2.03;;;19.20;58.80;;;;;;6234956;22;20095;-76
2022/10/20 00:21:28;;;;;;;3.20;1.67;;;19.20;58.80;;;;;;6265529;22;20039;-75
2022/10/20 00:23:54;;;;;;;3.05;1.73;;;19.20;58.80;;;;;;6236092;22;20407;-69
2022/10/20 00:26:25;;;;;;;2.83;1.55;;;19.20;58.80;;;;;;6264440;22;20073;-74
2022/10/20 00:28:52;;;;;;;4.53;1.80;;;19.20;58.70;;;;;;6264033;22;20899;-68
2022/10/20 00:31:19;;;;;;;2.63;1.50;;;19.20;58.70;;;;;;6264849;22;20499;-71
2022/10/20 00:33:45;;;;;;;3.05;1.63;;;19.10;58.60;;;;;;6263905;22;20012;-75
2022/10/20 00:36:13;;;;;;;2.28;1.80;;;19.10;58.60;;;;;;6208993;22;20598;-69
2022/10/20 00:38:39;;;;;;;3.28;1.58;;;19.20;58.60;;;;;;6264412;22;20012;-74
2022/10/20 00:41:05;;;;;;;2.25;1.60;;;19.10;58.60;;;;;;6263263;22;20054;-69
2022/10/20 00:43:41;;;;;;;3.08;1.48;;;19.10;58.60;;;;;;6264282;22;20069;-69
2022/10/20 00:46:06;;;;;;;3.33;1.63;;;19.10;58.50;;;;;;6263644;22;20022;-71
2022/10/20 00:48:33;;;;;;;2.53;1.60;;;19.10;58.50;;;;;;6262147;22;20015;-72
2022/10/20 00:50:59;;;;;;;2.33;1.70;;;19.10;58.50;;;;;;6237261;22;20026;-70
2022/10/20 00:53:28;;;;;;;2.47;1.50;;;19.10;58.50;;;;;;6262559;22;20051;-71
2022/10/20 00:55:56;;;;;;;4.07;1.80;;;19.10;58.50;;;;;;6237209;22;20012;-70
2022/10/20 00:58:22;;;;;;;2.17;1.63;;;19.10;58.50;;;;;;6261735;22;20103;-71
2022/10/20 01:00:52;;;;;;;3.28;1.60;;;19.10;58.40;;;;;;6265077;22;20058;-69
2022/10/20 01:03:28;;;;;;;4.15;1.75;;;19.10;58.40;;;;;;6262949;22;20073;-72
2022/10/20 01:05:53;;;;;;;2.55;1.52;;;19.10;58.40;;;;;;6262940;22;20012;-69
2022/10/20 01:08:19;;;;;;;1.70;1.60;;;19.10;58.40;;;;;;6264832;22;20022;-68
2022/10/20 01:11:17;;;;;;;2.78;1.55;;;19.10;58.40;;;;;;6233007;23;20088;-69
2022/10/20 01:13:43;;;;;;;;;;;19.10;58.30;;;;;;6171123;23;20028;-70
2022/10/20 01:16:24;;;;;;;3.33;1.63;;;19.10;58.40;;;;;;6205506;23;19925;-67
2022/10/20 01:19:15;;;;;;;2.00;1.80;;;19.10;58.40;;;;;;6230410;23;20322;-70
2022/10/20 01:22:12;;;;;;;2.72;1.60;;;19.10;58.30;;;;;;6233808;23;20027;-78
2022/10/20 01:24:43;;;;;;;2.10;1.38;;;19.10;58.30;;;;;;6233553;23;20031;-69
2022/10/20 01:27:29;;;;;;;1.70;1.60;;;19.10;58.40;;;;;;6206106;23;20020;-69
2022/10/20 01:30:09;;;;;;;3.35;1.80;;;19.10;58.30;;;;;;6233844;23;20031;-71
2022/10/20 01:32:46;;;;;;;1.60;1.40;;;19.00;58.30;;;;;;6230819;23;20012;-71
2022/10/20 01:35:15;;;;;;;2.10;1.45;;;19.00;58.30;;;;;;6233343;23;20035;-73
2022/10/20 01:37:59;;;;;;;2.88;1.67;;;19.00;58.30;;;;;;6207272;23;20103;-68
2022/10/20 01:40:30;;;;;;;2.95;1.50;;;19.00;58.30;;;;;;6205396;23;20024;-68
2022/10/20 01:43:00;;;;;;;2.85;1.60;;;19.00;58.30;;;;;;6206794;23;20020;-69
2022/10/20 01:45:30;;;;;;;1.95;1.55;;;19.00;58.30;;;;;;6205137;23;20149;-70
2022/10/20 01:47:57;;;;;;;2.78;1.70;;;19.00;58.30;;;;;;6232396;23;20012;-72
2022/10/20 01:50:23;;;;;;;2.30;1.48;;;19.00;58.30;;;;;;6231517;23;20019;-69
2022/10/20 01:52:49;;;;;;;2.45;1.35;;;19.00;58.20;;;;;;6233493;23;20576;-70
2022/10/20 01:55:17;;;;;;;2.55;1.50;;;19.00;58.20;;;;;;6233417;23;20024;-69
2022/10/20 01:57:57;;;;;;;2.75;1.58;;;19.00;58.30;;;;;;6232291;23;20423;-71
2022/10/20 02:00:23;;;;;;;2.17;1.50;;;19.00;58.20;;;;;;6232234;23;20024;-74
2022/10/20 02:03:15;;;;;;;2.97;1.80;;;19.00;58.20;;;;;;6230808;23;20427;-68
2022/10/20 02:05:50;;;;;;;1.85;1.58;;;19.00;58.20;;;;;;6232186;23;20056;-72
2022/10/20 02:08:44;;;;;;;3.42;1.60;;;19.00;58.20;;;;;;6207084;23;20085;-71
2022/10/20 02:11:19;;;;;;;4.65;1.85;;;19.00;58.20;;;;;;6232448;23;20024;-77
2022/10/20 02:13:46;;;;;;;2.50;1.60;;;19.00;58.20;;;;;;6233017;23;20050;-79
2022/10/20 02:16:18;;;;;;;2.88;1.50;;;19.00;58.20;;;;;;6233370;23;20115;-80
2022/10/20 02:18:45;;;;;;;3.85;1.70;;;19.00;58.10;;;;;;6231799;23;20027;-72
2022/10/20 02:21:11;;;;;;;2.30;1.50;;;19.00;58.10;;;;;;6233769;23;20059;-75
2022/10/20 02:23:41;;;;;;;1.70;1.42;;;19.00;58.10;;;;;;6180319;23;20028;-79
2022/10/20 02:26:11;;;;;;;2.35;1.50;;;19.00;58.10;;;;;;6233085;23;20016;-77
2022/10/20 02:28:41;;;;;;;2.70;1.60;;;19.00;58.10;;;;;;6231219;23;20459;-69
2022/10/20 02:31:08;;;;;;;1.75;1.50;;;19.00;58.10;;;;;;6235806;23;20070;-74
2022/10/20 02:33:34;;;;;;;2.15;1.60;;;19.00;58.00;;;;;;6232787;23;20020;-77
2022/10/20 02:36:05;;;;;;;2.17;1.52;;;18.90;58.00;;;;;;6233400;23;20020;-81
2022/10/20 02:38:31;;;;;;;1.80;1.48;;;18.90;57.90;;;;;;6206059;23;20019;-69
2022/10/20 02:40:56;;;;;;;2.47;1.58;;;18.90;57.90;;;;;;6204638;23;20020;-81
2022/10/20 02:43:22;;;;;;;2.20;1.40;;;18.90;58.60;;;;;;6231840;23;20096;-71
2022/10/20 02:45:47;;;;;;;2.03;1.35;;;19.00;57.90;;;;;;6231153;23;20039;-78
2022/10/20 02:48:13;;;;;;;2.10;1.38;;;18.90;57.80;;;;;;6231751;23;20028;-74
2022/10/20 02:50:39;;;;;;;2.70;1.70;;;18.90;57.70;;;;;;6231142;23;20043;-71
2022/10/20 02:53:04;;;;;;;2.03;1.48;;;18.90;57.70;;;;;;6233269;23;20562;-71
2022/10/20 02:55:30;;;;;;;3.13;1.35;;;18.90;57.60;;;;;;6231480;23;20020;-80
2022/10/20 02:57:56;;;;;;;2.03;1.42;;;18.90;57.60;;;;;;6230545;23;20146;-79
2022/10/20 03:00:22;;;;;;;2.30;1.60;;;18.90;57.60;;;;;;6205876;23;20468;-70
2022/10/20 03:02:48;;;;;;;2.03;1.60;;;18.90;57.60;;;;;;6229710;23;20016;-68
2022/10/20 03:05:14;;;;;;;1.70;1.30;;;18.90;57.60;;;;;;6206191;23;20634;-70
2022/10/20 03:07:40;;;;;;;2.70;1.95;;;18.90;57.50;;;;;;6231406;23;20020;-72
2022/10/20 03:10:06;;;;;;;2.35;1.40;;;18.90;57.50;;;;;;6255161;22;20416;-72
2022/10/20 03:12:31;;;;;;;1.60;1.50;;;18.90;57.50;;;;;;6262727;22;20401;-77
2022/10/20 03:14:57;;;;;;;2.13;1.40;;;18.90;57.40;;;;;;6235264;22;20007;-73
2022/10/20 03:17:23;;;;;;;1.95;1.27;;;18.90;57.40;;;;;;6263099;22;20031;-71
2022/10/20 03:19:48;;;;;;;2.03;1.42;;;18.90;57.40;;;;;;6234524;22;20105;-71
2022/10/20 03:22:14;;;;;;;2.08;1.48;;;18.90;57.30;;;;;;6236772;22;20069;-70
2022/10/20 03:24:40;;;;;;;2.92;1.30;;;18.90;57.30;;;;;;6235614;22;20020;-70
2022/10/20 03:27:06;;;;;;;3.20;1.60;;;18.90;57.30;;;;;;6234988;22;20140;-74
2022/10/20 03:29:31;;;;;;;2.88;1.60;;;18.80;57.20;;;;;;6234429;22;20453;-80
2022/10/20 03:31:57;;;;;;;1.80;1.38;;;18.90;57.30;;;;;;6263280;22;20026;-75
2022/10/20 03:34:23;;;;;;;2.58;1.48;;;18.80;57.20;;;;;;6261785;22;20019;-69
2022/10/20 03:36:48;;;;;;;2.58;1.60;;;18.90;57.20;;;;;;6263088;22;20023;-69
2022/10/20 03:39:14;;;;;;;2.85;1.60;;;18.80;57.10;;;;;;6264287;22;20051;-70
2022/10/20 03:41:39;;;;;;;2.20;1.52;;;18.80;57.10;;;;;;6261228;22;20023;-70
2022/10/20 03:44:05;;;;;;;2.60;1.50;;;18.90;57.10;;;;;;6263081;22;20107;-68
2022/10/20 03:46:31;;;;;;;3.15;1.60;;;18.80;57.10;;;;;;6259892;22;20046;-76
2022/10/20 03:48:56;;;;;;;1.88;1.50;;;18.80;57.70;;;;;;6261495;22;20041;-72
2022/10/20 03:51:22;;;;;;;2.10;1.58;;;18.90;57.00;;;;;;6261709;22;20015;-69
2022/10/20 03:53:47;;;;;;;3.10;1.70;;;18.80;56.90;;;;;;6261842;22;20098;-77
2022/10/20 03:56:17;;;;;;;1.75;1.55;;;18.80;56.90;;;;;;6235720;22;20070;-79
2022/10/20 03:58:43;;;;;;;2.13;1.55;;;18.80;56.80;;;;;;6261872;22;20098;-70
2022/10/20 04:01:14;;;;;;;4.18;1.40;;;18.80;56.80;;;;;;6263662;22;20054;-77
2022/10/20 04:03:39;;;;;;;2.78;1.65;;;18.80;56.80;;;;;;6260481;22;20451;-69
2022/10/20 04:06:05;;;;;;;2.30;1.42;;;18.80;56.70;;;;;;6263583;22;20065;-68
2022/10/20 04:08:30;;;;;;;2.28;1.50;;;18.80;56.70;;;;;;6262956;22;20339;-69
2022/10/20 04:10:57;;;;;;;1.60;1.50;;;18.80;56.70;;;;;;6262645;22;20020;-71
2022/10/20 04:13:23;;;;;;;2.67;1.70;;;18.80;56.60;;;;;;6262865;22;20122;-69
2022/10/20 04:15:49;;;;;;;2.35;1.70;;;18.80;56.60;;;;;;6233124;22;20047;-68
2022/10/20 04:18:14;;;;;;;1.88;1.58;;;18.80;56.60;;;;;;6262070;22;20501;-68
2022/10/20 04:20:41;;;;;;;2.60;1.42;;;18.80;56.50;;;;;;6261734;22;20023;-73
2022/10/20 04:23:06;;;;;;;2.67;1.73;;;18.80;56.60;;;;;;6211628;22;20114;-68
2022/10/20 04:25:32;;;;;;;4.00;1.75;;;18.80;57.30;;;;;;6262647;22;20043;-73
2022/10/20 04:27:58;;;;;;;2.75;1.77;;;18.80;56.40;;;;;;6262090;22;20030;-70
2022/10/20 04:30:24;;;;;;;1.65;1.55;;;18.80;56.40;;;;;;6263304;22;20436;-69
2022/10/20 04:32:50;;;;;;;2.38;1.77;;;18.70;56.30;;;;;;6260752;22;20088;-69
2022/10/20 04:35:16;;;;;;;2.03;1.60;;;18.70;56.20;;;;;;6263888;22;20043;-70
2022/10/20 04:37:41;;;;;;;4.70;1.70;;;18.70;56.20;;;;;;6262239;22;20023;-70
2022/10/20 04:40:08;;;;;;;2.53;1.95;;;18.70;56.20;;;;;;6264235;22;20019;-71
2022/10/20 04:42:33;;;;;;;2.33;1.70;;;18.70;56.20;;;;;;6236153;22;20023;-69
2022/10/20 04:44:59;;;;;;;2.05;1.70;;;18.70;56.20;;;;;;6236487;22;20019;-69
2022/10/20 04:47:24;;;;;;;1.95;1.58;;;18.70;56.20;;;;;;6261964;22;20016;-68
2022/10/20 04:49:50;;;;;;;3.00;1.80;;;18.70;56.20;;;;;;6264480;22;20030;-70
2022/10/20 04:52:16;;;;;;;2.50;1.70;;;18.70;56.10;;;;;;6264544;22;20316;-69
2022/10/20 04:54:41;;;;;;;2.95;1.88;;;18.70;56.10;;;;;;6264643;22;20364;-76
2022/10/20 04:57:09;;;;;;;1.88;1.70;;;18.70;56.10;;;;;;6265819;22;20039;-68
2022/10/20 04:59:35;;;;;;;2.53;1.77;;;18.70;56.10;;;;;;6263494;22;20096;-69
2022/10/20 05:02:00;;;;;;;2.80;1.80;;;18.70;56.10;;;;;;6265454;22;20035;-70
2022/10/20 05:04:26;;;;;;;2.72;1.90;;;18.70;56.10;;;;;;6262928;22;20027;-68
2022/10/20 05:06:52;;;;;;;2.22;1.90;;;18.70;56.10;;;;;;6265363;22;20353;-69
2022/10/20 05:09:18;;;;;;;1.98;1.70;;;18.70;56.10;;;;;;6264333;22;20016;-68
2022/10/20 05:11:43;;;;;;;3.60;1.70;;;18.70;56.10;;;;;;6264022;22;20082;-74
2022/10/20 05:14:09;;;;;;;2.38;1.70;;;18.70;56.10;;;;;;6264358;22;20031;-70
2022/10/20 05:16:34;;;;;;;1.77;1.52;;;18.70;56.00;;;;;;6261218;22;20027;-74
2022/10/20 05:19:00;;;;;;;2.55;1.80;;;18.70;56.00;;;;;;6262689;22;20096;-68
2022/10/20 05:21:28;;;;;;;2.20;1.70;;;18.60;56.00;;;;;;6235116;22;20293;-72
2022/10/20 05:23:59;;;;;;;2.55;1.90;;;18.70;55.90;;;;;;6264072;22;20549;-71
2022/10/20 05:26:26;;;;;;;2.20;1.98;;;18.70;55.90;;;;;;6264137;22;20019;-71
2022/10/20 05:28:52;;;;;;;2.58;1.88;;;18.70;56.70;;;;;;6264407;22;20019;-73
2022/10/20 05:31:20;;;;;;;2.30;1.75;;;18.70;55.90;;;;;;6265656;22;20016;-69
2022/10/20 05:33:51;;;;;;;3.38;1.83;;;18.60;55.90;;;;;;6234566;22;20020;-79
2022/10/20 05:36:19;;;;;;;2.20;1.77;;;18.70;55.90;;;;;;6265439;22;20330;-79
2022/10/20 05:38:46;;;;;;;2.75;1.67;;;18.70;55.90;;;;;;6235426;22;20030;-77
2022/10/20 05:41:16;;;;;;;3.13;1.50;;;18.60;55.90;;;;;;6238060;22;20422;-79
2022/10/20 05:43:46;;;;;;;2.90;1.85;;;18.60;55.80;;;;;;6236908;22;20043;-79
2022/10/20 05:46:12;;;;;;;5.05;1.77;;;18.60;55.90;;;;;;6264177;22;20034;-81
2022/10/20 05:48:37;;;;;;;2.55;1.88;;;18.70;56.10;;;;;;6236222;22;20389;-82
2022/10/20 05:51:24;;;;;;;4.35;2.10;;;18.60;56.20;;;;;;6263837;22;20103;-78
2022/10/20 05:53:51;;;;;;;2.85;2.00;;;18.60;56.40;;;;;;6264493;22;20069;-75
2022/10/20 05:56:18;;;;;;;5.10;1.90;;;18.60;56.50;;;;;;6263616;22;20019;-82
2022/10/20 05:58:44;;;;;;;4.18;2.38;;;18.60;56.60;;;;;;6211943;22;20034;-80
2022/10/20 06:01:15;;;;;;;10.10;2.15;;;18.60;56.70;;;;;;6236251;22;20016;-71
2022/10/20 06:03:41;;;;;;;5.07;2.40;;;18.60;56.70;;;;;;6261003;22;20020;-78
2022/10/20 06:06:07;;;;;;;4.32;2.45;;;18.60;56.70;;;;;;6262992;22;20306;-78
2022/10/20 06:08:33;;;;;;;4.32;2.00;;;18.60;56.70;;;;;;6259447;22;20022;-74
2022/10/20 06:11:07;;;;;;;4.63;2.00;;;18.60;56.70;;;;;;6233632;22;20027;-77
2022/10/20 06:13:33;;;;;;;5.72;2.20;;;18.60;56.70;;;;;;6261888;22;20027;-78
2022/10/20 06:16:08;;;;;;;4.40;2.38;;;18.50;56.70;;;;;;6263566;22;20395;-73
2022/10/20 06:18:34;;;;;;;4.60;2.40;;;18.60;56.80;;;;;;6262560;22;20094;-86
2022/10/20 06:21:06;;;;;;;6.40;2.40;;;18.50;56.80;;;;;;6258076;22;20440;-80
2022/10/20 06:23:33;;;;;;;3.67;2.50;;;18.60;56.90;;;;;;6236377;22;20024;-81
2022/10/20 06:26:10;;;;;;;8.38;2.67;;;18.60;57.10;;;;;;6261669;22;20498;-85
2022/10/20 06:28:37;;;;;;;3.47;2.50;;;18.60;57.10;;;;;;6262469;22;20019;-81
2022/10/20 06:31:30;;;;;;;4.47;2.35;;;18.60;57.10;;;;;;6263399;22;20118;-85
2022/10/20 06:33:56;;;;;;;4.30;2.50;;;18.60;57.10;;;;;;6255740;22;20007;-79
2022/10/20 06:36:23;;;;;;;5.32;2.30;;;18.60;57.10;;;;;;6264967;22;20041;-85
2022/10/20 06:38:54;;;;;;;4.28;2.58;;;18.50;57.00;;;;;;6263134;22;20094;-77
2022/10/20 06:41:19;;;;;;;6.85;2.70;;;18.60;57.10;;;;;;6237056;22;20115;-78
2022/10/20 06:43:45;;;;;;;4.80;2.25;;;18.60;57.10;;;;;;6262020;22;20046;-82
2022/10/20 06:46:13;;;;;;;3.97;2.50;;;18.60;57.00;;;;;;6262496;22;20329;-81
2022/10/20 06:48:42;;;;;;;5.13;2.63;;;18.60;56.90;;;;;;6234683;22;20023;-74
2022/10/20 06:51:22;;;;;;;7.38;2.70;;;18.60;56.90;;;;;;6210072;22;20131;-79
2022/10/20 06:53:49;;;;;;;3.05;2.47;;;18.60;56.80;;;;;;6263324;22;20102;-78
2022/10/20 06:56:17;;;;;;;3.58;2.35;;;18.60;56.80;;;;;;6263155;22;20027;-69
2022/10/20 06:58:44;;;;;;;;;;;18.70;56.80;;;;;;6262696;22;20015;-80
2022/10/20 07:01:24;;;;;;;3.42;2.50;;;18.70;56.70;;;;;;6233573;22;19994;-76
2022/10/20 07:03:53;;;;;;;6.78;2.88;;;18.70;56.70;;;;;;6235099;22;20433;-75
2022/10/20 07:06:20;;;;;;;;;;;18.70;56.60;;;;;;6265005;22;20435;-74
2022/10/20 07:08:46;;;;;;;3.83;2.60;;;18.70;57.20;;;;;;6234983;22;19982;-76
2022/10/20 07:11:17;;;;;;;5.10;2.70;;;18.70;56.50;;;;;;6264363;22;20041;-70
2022/10/20 07:13:43;;;;;;;4.43;2.47;;;18.70;56.40;;;;;;6262757;22;20061;-75
2022/10/20 07:16:17;;;;;;;2.85;2.50;;;18.70;56.30;;;;;;6264592;22;20016;-73
2022/10/20 07:18:44;;;;;;;3.55;2.70;;;18.70;56.30;;;;;;6233134;22;20337;-78
2022/10/20 07:21:13;;;;;;;4.55;3.00;;;18.70;56.10;;;;;;6262672;22;20020;-77
2022/10/20 07:23:39;;;;;;;3.90;2.88;;;18.80;55.90;;;;;;6237170;22;20031;-74
2022/10/20 07:26:18;;;;;;;7.85;2.97;;;18.80;55.80;;;;;;6263023;22;20015;-79
2022/10/20 07:28:47;;;;;;;6.50;3.00;;;18.80;55.60;;;;;;6236737;22;20449;-75
2022/10/20 07:31:14;;;;;;;;;;;18.80;55.60;;;;;;6236534;22;20034;-71
2022/10/20 07:33:40;;;;;;;6.18;3.15;;;18.80;55.40;;;;;;6262899;22;20331;-68
2022/10/20 07:36:14;;;;;;;6.07;3.30;;;18.80;55.50;;;;;;6264166;22;20019;-72
2022/10/20 07:38:41;;;;;;;4.40;3.17;;;18.80;55.10;;;;;;6263253;22;20042;-76
2022/10/20 07:41:07;;;;;;;6.47;3.03;;;18.80;55.10;;;;;;6236203;22;20418;-80
2022/10/20 07:43:34;;;;;;;3.25;2.95;;;18.80;55.00;;;;;;6234613;22;20016;-73
2022/10/20 07:45:59;;;;;;;6.40;2.83;;;18.80;55.00;;;;;;6236645;22;20343;-69
2022/10/20 07:48:25;;;;;;;5.70;3.15;;;18.80;55.00;;;;;;6260353;22;20127;-80
2022/10/20 07:50:51;;;;;;;6.43;3.03;;;18.70;54.90;;;;;;6262893;22;20099;-75
2022/10/20 07:53:17;;;;;;;6.18;3.50;;;18.80;55.00;;;;;;6260111;22;20035;-73
2022/10/20 07:55:42;;;;;;;3.97;2.80;;;18.70;55.00;;;;;;6260000;22;20018;-76
2022/10/20 07:58:08;;;;;;;8.15;3.30;;;18.80;55.20;;;;;;6262271;22;20019;-73
2022/10/20 08:00:34;;;;;;;7.45;2.70;;;18.70;55.00;;;;;;6260891;22;20034;-76
2022/10/20 08:02:59;;;;;;;3.35;2.60;;;18.80;55.10;;;;;;6261785;22;20122;-73
2022/10/20 08:05:28;;;;;;;;;;;18.80;55.00;;;;;;6261244;22;20015;-76
2022/10/20 08:07:54;;;;;;;4.75;2.85;;;18.80;55.00;;;;;;6238253;22;19962;-69
2022/10/20 08:10:20;;;;;;;6.93;2.97;;;18.80;55.10;;;;;;6263101;22;20020;-70
2022/10/20 08:12:45;;;;;;;7.25;2.65;;;18.80;55.00;;;;;;6263367;22;20020;-80
2022/10/20 08:15:11;;;;;;;3.97;2.60;;;18.80;55.00;;;;;;6237656;22;20412;-82
2022/10/20 08:17:37;;;;;;;4.75;2.67;;;18.80;54.90;;;;;;6263332;22;20020;-76
2022/10/20 08:20:03;;;;;;;7.97;2.75;;;18.80;54.90;;;;;;6266014;22;20015;-71
2022/10/20 08:22:30;;;;;;;5.93;2.75;;;18.80;54.80;;;;;;6237503;22;20112;-73
2022/10/20 08:24:57;;;;;;;5.28;3.10;;;18.80;54.80;;;;;;6264716;22;20019;-77
2022/10/20 08:27:22;;;;;;;6.07;2.75;;;18.80;54.80;;;;;;6236600;22;20023;-78
2022/10/20 08:29:48;;;;;;;5.47;2.75;;;18.80;54.70;;;;;;6264451;22;20316;-74
2022/10/20 08:32:14;;;;;;;6.90;2.75;;;18.90;54.80;;;;;;6238137;22;20083;-72
2022/10/20 08:34:39;;;;;;;7.18;3.17;;;18.90;54.80;;;;;;6263538;22;20862;-72
2022/10/20 08:37:05;;;;;;;3.63;2.80;;;18.90;54.80;;;;;;6266751;22;20012;-70
2022/10/20 08:39:31;;;;;;;6.82;3.00;;;18.90;54.90;;;;;;6265215;22;20100;-77
2022/10/20 08:41:57;;;;;;;6.43;2.75;;;18.90;54.80;;;;;;6238540;22;20392;-74
2022/10/20 08:44:26;;;;;;;5.07;2.70;;;18.90;54.70;;;;;;6264188;22;20076;-80
2022/10/20 08:46:52;;;;;;;4.32;2.67;;;18.90;54.70;;;;;;6265098;22;20031;-80
2022/10/20 08:49:24;;;;;;;4.82;2.38;;;18.90;54.60;;;;;;6235830;22;20024;-78
2022/10/20 08:51:50;;;;;;;4.60;2.63;;;18.90;54.60;;;;;;6264372;22;20043;-81
2022/10/20 08:54:16;;;;;;;5.03;2.80;;;18.90;54.60;;;;;;6265581;22;20019;-81
2022/10/20 08:56:43;;;;;;;6.05;2.50;;;18.90;54.60;;;;;;6264302;22;20027;-79
2022/10/20 08:59:33;;;;;;;5.10;2.70;;;19.00;54.60;;;;;;6264827;22;20030;-76
2022/10/20 09:01:59;;;;;;;5.78;2.58;;;18.90;54.40;;;;;;6264150;22;20567;-81
2022/10/20 09:04:40;;;;;;;3.95;2.50;;;19.00;54.50;;;;;;6235939;22;20039;-81
2022/10/20 09:07:30;;;;;;;3.30;2.70;;;19.00;54.40;;;;;;6237437;22;20023;-78
2022/10/20 09:10:03;;;;;;;5.97;3.17;;;19.00;54.30;;;;;;6236769;22;20020;-78
2022/10/20 09:12:31;;;;;;;8.93;3.78;;;19.00;54.10;;;;;;6237402;22;20070;-80
2022/10/20 09:14:56;;;;;;;3.90;3.50;;;19.00;53.90;;;;;;6237164;22;20385;-75
2022/10/20 09:17:22;;;;;;;5.72;3.65;;;18.80;53.70;;;;;;6264785;22;20035;-76
2022/10/20 09:19:53;;;;;;;10.30;3.60;;;18.90;53.70;;;;;;6264047;22;20047;-76
2022/10/20 09:22:25;;;;;;;6.65;3.60;;;18.80;53.60;;;;;;6264262;22;20120;-72
2022/10/20 09:24:54;;;;;;;7.68;4.38;;;18.80;53.40;;;;;;6264996;22;20019;-78
2022/10/20 09:27:28;;;;;;;5.28;3.47;;;18.70;52.80;;;;;;6262692;22;20016;-71
2022/10/20 09:29:57;;;;;;;5.40;3.70;;;18.70;52.70;;;;;;6265355;22;20027;-71
2022/10/20 09:32:33;;;;;;;6.82;3.55;;;18.70;52.60;;;;;;6262856;22;20072;-78
2022/10/20 09:35:17;;;;;;;4.60;3.28;;;18.70;52.20;;;;;;6263850;22;20062;-71
2022/10/20 09:38:02;;;;;;;8.20;3.78;;;18.60;51.90;;;;;;6264393;22;20065;-70
2022/10/20 09:40:28;;;;;;;8.05;3.95;;;18.60;52.30;;;;;;6263590;22;20127;-75
2022/10/20 09:43:14;;;;;;;7.88;3.85;;;18.60;52.10;;;;;;6264641;22;20016;-78
2022/10/20 09:45:50;;;;;;;5.63;3.78;;;18.60;52.00;;;;;;6237713;22;20362;-72
2022/10/20 09:48:33;;;;;;;4.63;3.72;;;18.50;51.60;;;;;;6262410;22;20008;-70
2022/10/20 09:50:59;;;;;;;5.57;3.90;;;18.50;51.30;;;;;;6265470;22;20026;-77
2022/10/20 09:53:32;;;;;;;6.32;4.22;;;18.50;51.90;;;;;;6236316;22;20008;-69
2022/10/20 09:55:58;;;;;;;5.15;3.75;;;18.50;51.80;;;;;;6265053;22;20012;-75
2022/10/20 09:58:27;;;;;;;5.80;3.45;;;18.50;51.70;;;;;;6263690;22;20104;-69
2022/10/20 10:01:02;;;;;;;9.13;3.92;;;18.50;51.70;;;;;;6264444;22;20098;-78
2022/10/20 10:03:38;;;;;;;5.28;3.22;;;18.50;51.80;;;;;;6263703;22;20358;-78
2022/10/20 10:06:30;;;;;;;10.32;3.25;;;18.50;51.80;;;;;;6262726;22;20412;-73
2022/10/20 10:08:58;;;;;;;5.65;2.95;;;18.50;51.60;;;;;;6264971;22;20016;-75
2022/10/20 10:11:32;;;;;;;8.55;3.05;;;18.50;51.70;;;;;;6264138;22;20042;-72
2022/10/20 10:13:57;;;;;;;6.20;2.60;;;18.60;51.80;;;;;;6237051;22;20436;-75
2022/10/20 10:16:23;;;;;;;3.83;2.30;;;18.60;51.80;;;;;;6262706;22;20047;-68
2022/10/20 10:19:01;;;;;;;4.93;2.58;;;18.70;51.90;;;;;;6261757;22;20095;-74
2022/10/20 10:21:29;;;;;;;8.80;2.25;;;18.70;51.90;;;;;;6263789;22;20020;-78
2022/10/20 10:23:56;;;;;;;6.32;2.55;;;18.70;51.90;;;;;;6263413;22;20025;-71
2022/10/20 10:26:38;;;;;;;6.15;2.45;;;18.70;51.90;;;;;;6262759;22;20024;-71
2022/10/20 10:29:17;;;;;;;6.05;2.42;;;18.80;51.80;;;;;;6235710;22;20019;-71
2022/10/20 10:31:55;;;;;;;5.20;2.20;;;18.80;51.90;;;;;;6235939;22;20092;-70
2022/10/20 10:34:40;;;;;;;4.07;2.17;;;18.90;51.90;;;;;;6263147;22;20023;-73
2022/10/20 10:37:13;;;;;;;6.07;2.40;;;18.90;52.00;;;;;;6234416;22;20420;-79
2022/10/20 10:39:39;;;;;;;5.43;2.30;;;18.90;52.00;;;;;;6237617;22;20396;-75
2022/10/20 10:42:24;;;;;;;3.17;1.98;;;18.90;52.00;;;;;;6236724;22;20466;-71
2022/10/20 10:45:08;;;;;;;3.60;2.30;;;18.90;52.00;;;;;;6234232;22;20074;-74
2022/10/20 10:48:07;;;;;;;5.95;2.38;;;19.00;52.10;;;;;;6261978;22;20085;-71
2022/10/20 10:51:04;;;;;;;3.78;2.30;;;19.00;52.10;;;;;;6264015;22;20081;-69
2022/10/20 10:53:54;;;;;;;3.83;2.30;;;19.00;52.30;;;;;;6235782;22;20027;-75
2022/10/20 10:56:34;;;;;;;5.22;2.85;;;19.10;52.20;;;;;;6237632;22;20031;-75
2022/10/20 10:59:35;;;;;;;4.38;2.40;;;19.10;52.20;;;;;;6263235;22;20027;-71
2022/10/20 11:02:44;;;;;;;4.13;2.20;;;19.10;52.30;;;;;;6262752;22;20046;-79
2022/10/20 11:05:22;;;;;;;3.67;2.30;;;19.20;52.50;;;;;;6211326;22;20038;-72
2022/10/20 11:08:11;;;;;;;4.30;2.22;;;19.20;52.40;;;;;;6263386;22;20119;-69
2022/10/20 11:10:45;;;;;;;4.15;2.10;;;19.20;52.50;;;;;;6235651;22;20012;-71
2022/10/20 11:13:39;;;;;;;5.03;2.40;;;19.20;52.50;;;;;;6263953;22;20027;-79
2022/10/20 11:16:23;;;;;;;2.83;2.05;;;19.30;52.60;;;;;;6235777;22;20019;-69
2022/10/20 11:19:23;;;;;;;3.90;2.10;;;19.30;52.70;;;;;;6262153;22;20027;-72
2022/10/20 11:22:25;;;;;;;3.00;2.10;;;19.30;52.80;;;;;;6236960;22;20090;-72
2022/10/20 11:25:10;;;;;;;4.22;2.30;;;19.30;52.80;;;;;;6261453;22;20008;-78
2022/10/20 11:27:37;;;;;;;2.92;2.33;;;19.30;52.80;;;;;;6261727;22;20012;-78
2022/10/20 11:30:17;;;;;;;3.53;2.10;;;19.30;52.80;;;;;;6236161;22;20819;-71
2022/10/20 11:32:55;;;;;;;3.53;2.20;;;19.40;52.90;;;;;;6260919;22;20026;-70
2022/10/20 11:35:50;;;;;;;4.25;2.40;;;19.40;52.90;;;;;;6236715;22;20105;-72
2022/10/20 11:38:37;;;;;;;3.97;1.90;;;19.40;53.00;;;;;;6236382;22;20027;-71
2022/10/20 11:41:15;;;;;;;6.47;2.30;;;19.40;53.00;;;;;;6235571;22;20047;-73
2022/10/20 11:44:06;;;;;;;3.33;2.38;;;19.40;53.10;;;;;;6263462;22;20073;-73
2022/10/20 11:46:56;;;;;;;3.72;2.47;;;19.40;53.30;;;;;;6236458;22;20134;-70
2022/10/20 11:49:22;;;;;;;6.15;2.30;;;19.40;53.20;;;;;;6266623;22;20436;-81
2022/10/20 11:52:06;;;;;;;3.33;2.25;;;19.40;53.10;;;;;;6267840;22;20095;-69
2022/10/20 11:54:58;;;;;;;5.75;2.67;;;19.40;53.00;;;;;;6262650;22;20015;-72
2022/10/20 11:57:45;;;;;;;4.40;2.50;;;19.40;53.10;;;;;;6265884;22;20070;-67
2022/10/20 12:00:55;;;;;;;3.27;2.30;;;19.40;53.30;;;;;;6237734;22;20016;-68
2022/10/20 12:03:32;;;;;;;3.78;2.20;;;19.40;53.40;;;;;;6236295;22;20710;-79
2022/10/20 12:06:16;;;;;;;5.85;2.50;;;19.40;53.40;;;;;;6266288;22;20016;-75
2022/10/20 12:08:56;;;;;;;4.63;2.25;;;19.40;53.60;;;;;;6265447;22;20035;-77
2022/10/20 12:11:50;;;;;;;8.13;2.45;;;19.40;53.60;;;;;;6212015;22;20020;-78
2022/10/20 12:14:29;;;;;;;6.00;2.75;;;19.40;53.70;;;;;;6265611;22;20015;-75
2022/10/20 12:16:54;;;;;;;6.22;2.90;;;19.40;53.70;;;;;;6238123;22;20047;-77
2022/10/20 12:19:34;;;;;;;3.40;2.63;;;19.40;53.70;;;;;;6263119;22;20012;-78
2022/10/20 12:22:14;;;;;;;3.15;2.50;;;19.40;53.80;;;;;;6265914;22;20023;-77
2022/10/20 12:24:40;;;;;;;4.53;2.78;;;19.40;53.80;;;;;;6263163;22;20016;-79
2022/10/20 12:27:09;;;;;;;5.80;2.92;;;19.40;53.90;;;;;;6238513;22;20016;-75
2022/10/20 12:29:34;;;;;;;4.68;3.03;;;19.40;53.90;;;;;;6264990;22;20023;-74
2022/10/20 12:32:38;;;;;;;4.25;2.90;;;19.40;54.00;;;;;;6264695;22;20018;-78
2022/10/20 12:35:10;;;;;;;3.67;2.90;;;19.40;54.10;;;;;;6237469;22;20024;-79
2022/10/20 12:37:37;;;;;;;3.25;2.95;;;19.40;54.10;;;;;;6263849;22;20115;-67
2022/10/20 12:40:05;;;;;;;5.30;2.97;;;19.40;54.20;;;;;;6264881;22;20012;-78
2022/10/20 12:42:35;;;;;;;4.88;3.00;;;19.40;54.20;;;;;;6263729;22;20456;-75
2022/10/20 12:45:07;;;;;;;3.28;2.70;;;19.30;54.20;;;;;;6263186;22;20016;-74
2022/10/20 12:47:35;;;;;;;3.80;3.28;;;19.30;54.20;;;;;;6264299;22;20027;-75
2022/10/20 12:50:06;;;;;;;;;;;19.30;54.20;;;;;;6262128;22;20566;-77
2022/10/20 12:52:37;;;;;;;3.83;2.90;;;19.30;54.40;;;;;;6264823;22;19930;-77
2022/10/20 12:55:30;;;;;;;3.78;3.10;;;19.30;54.30;;;;;;6234859;22;20020;-72
2022/10/20 12:58:25;;;;;;;3.75;2.95;;;19.30;54.40;;;;;;6263391;22;20029;-71
2022/10/20 13:00:51;;;;;;;5.15;3.08;;;19.30;54.50;;;;;;6236248;22;20027;-75
2022/10/20 13:03:39;;;;;;;4.22;3.20;;;19.30;54.50;;;;;;6234825;22;20529;-73
2022/10/20 13:06:30;;;;;;;5.30;3.08;;;19.30;54.60;;;;;;6238261;22;20019;-72
2022/10/20 13:09:02;;;;;;;3.88;2.97;;;19.30;54.70;;;;;;6214748;23;20024;-69
2022/10/20 13:11:37;;;;;;;3.42;3.00;;;19.30;54.70;;;;;;6232975;23;20070;-68